Time;durP1;ratioP1;P1;durP2;ratioP2;P2;SDS_P1;SDS_P2;PMS_P1;PMS_P2;Temp;Humidity;BMP_temperature;BMP_pressure;BME280_temperature;BME280_humidity;BME280_pressure;Samples;Min_cycle;Max_cycle;Signal;HPM_P1;HPM_P2
2023/06/17 00:00:44;;;;;;;17.50;13.27;;;;;;;;;;4950601;29;20051;-60
2023/06/17 00:03:10;;;;;;;19.33;13.63;;;;;;;;;;4950413;29;20159;-60
2023/06/17 00:05:36;;;;;;;18.77;13.90;;;;;;;;;;4962269;28;20135;-60
2023/06/17 00:08:02;;;;;;;14.77;13.23;;;;;;;;;;4969616;28;20551;-59
2023/06/17 00:10:28;;;;;;;14.30;12.40;;;;;;;;;;4969969;28;20049;-60
2023/06/17 00:12:54;;;;;;;16.67;13.17;;;;;;;;;;4969639;28;20047;-60
2023/06/17 00:15:22;;;;;;;15.50;13.90;;;;;;;;;;4969165;28;20047;-60
2023/06/17 00:17:50;;;;;;;20.27;13.90;;;;;;;;;;4969755;28;20055;-60
2023/06/17 00:20:16;;;;;;;20.97;14.93;;;;;;;;;;4969261;28;20057;-60
2023/06/17 00:22:44;;;;;;;22.80;14.67;;;;;;;;;;4969667;28;20051;-60
2023/06/17 00:25:11;;;;;;;19.20;15.53;;;;;;;;;;4967598;28;20524;-59
2023/06/17 00:27:37;;;;;;;26.07;17.13;;;;;;;;;;4960158;28;20055;-60
2023/06/17 00:30:04;;;;;;;21.67;16.43;;;;;;;;;;4969804;28;20105;-60
2023/06/17 00:32:30;;;;;;;21.33;18.73;;;;;;;;;;4969471;28;20094;-60
2023/06/17 00:34:57;;;;;;;26.93;19.20;;;;;;;;;;4968304;28;20049;-60
2023/06/17 00:37:23;;;;;;;24.50;19.93;;;;;;;;;;4969482;28;20058;-60
2023/06/17 00:39:49;;;;;;;28.73;20.57;;;;;;;;;;4969763;28;20043;-60
2023/06/17 00:42:15;;;;;;;23.60;20.30;;;;;;;;;;4969293;28;20437;-60
2023/06/17 00:44:41;;;;;;;26.83;20.50;;;;;;;;;;4969439;28;20513;-59
2023/06/17 00:47:10;;;;;;;28.43;19.67;;;;;;;;;;4967725;28;20062;-60
2023/06/17 00:49:36;;;;;;;26.23;22.30;;;;;;;;;;4968853;28;20408;-60
2023/06/17 00:52:07;;;;;;;28.43;20.70;;;;;;;;;;4969560;28;20043;-60
2023/06/17 00:54:34;;;;;;;27.43;21.73;;;;;;;;;;4969332;28;20047;-60
2023/06/17 00:57:03;;;;;;;27.03;22.03;;;;;;;;;;4960710;28;20039;-59
2023/06/17 00:59:32;;;;;;;27.53;19.80;;;;;;;;;;4949474;29;20047;-60
2023/06/17 01:01:59;;;;;;;25.00;19.77;;;;;;;;;;4951599;28;20154;-60
2023/06/17 01:04:25;;;;;;;30.70;20.83;;;;;;;;;;4949888;29;20051;-60
2023/06/17 01:06:59;;;;;;;25.17;20.50;;;;;;;;;;4949938;29;20581;-60
2023/06/17 01:09:30;;;;;;;28.90;21.20;;;;;;;;;;4971107;28;20055;-60
2023/06/17 01:11:57;;;;;;;23.70;18.77;;;;;;;;;;4972473;28;20050;-60
2023/06/17 01:14:23;;;;;;;25.50;21.60;;;;;;;;;;4972777;28;20039;-59
2023/06/17 01:16:54;;;;;;;27.33;22.20;;;;;;;;;;4971653;28;20043;-60
2023/06/17 01:19:22;;;;;;;30.37;24.33;;;;;;;;;;4971980;28;20054;-60
2023/06/17 01:21:48;;;;;;;30.93;24.60;;;;;;;;;;4972471;28;20039;-60
2023/06/17 01:24:28;;;;;;;30.60;24.00;;;;;;;;;;4972661;28;20043;-60
2023/06/17 01:26:59;;;;;;;35.67;25.67;;;;;;;;;;4972319;28;20137;-59
2023/06/17 01:29:26;;;;;;;32.30;27.47;;;;;;;;;;4972427;28;20130;-60
2023/06/17 01:31:59;;;;;;;30.70;26.17;;;;;;;;;;4971075;28;20046;-60
2023/06/17 01:34:41;;;;;;;35.75;27.77;;;;;;;;;;4971702;28;20054;-60
2023/06/17 01:37:10;;;;;;;49.07;34.40;;;;;;;;;;4972268;28;20125;-60
2023/06/17 01:39:38;;;;;;;49.53;34.67;;;;;;;;;;4972129;28;20053;-60
2023/06/17 01:42:06;;;;;;;46.53;36.30;;;;;;;;;;4971559;28;20046;-60
2023/06/17 01:44:33;;;;;;;52.83;34.43;;;;;;;;;;4971804;28;20042;-60
2023/06/17 01:46:59;;;;;;;46.10;35.30;;;;;;;;;;4970891;28;20053;-60
2023/06/17 01:49:25;;;;;;;51.00;35.50;;;;;;;;;;4969761;28;20043;-60
2023/06/17 01:51:51;;;;;;;47.00;32.90;;;;;;;;;;4971777;28;20388;-60
2023/06/17 01:54:17;;;;;;;50.90;35.30;;;;;;;;;;4971992;28;20043;-59
2023/06/17 01:56:43;;;;;;;53.50;38.37;;;;;;;;;;4969889;28;20097;-60
2023/06/17 01:59:09;;;;;;;48.97;36.97;;;;;;;;;;4971630;28;20050;-60
2023/06/17 02:01:35;;;;;;;58.33;38.93;;;;;;;;;;4971763;28;20049;-60
2023/06/17 02:04:01;;;;;;;51.50;36.70;;;;;;;;;;4971491;28;20085;-60
2023/06/17 02:06:27;;;;;;;45.37;32.63;;;;;;;;;;4971489;28;20070;-60
2023/06/17 02:08:54;;;;;;;58.50;38.90;;;;;;;;;;4955737;28;20063;-60
2023/06/17 02:11:20;;;;;;;60.23;37.60;;;;;;;;;;4952031;29;20059;-60
2023/06/17 02:13:46;;;;;;;51.47;32.83;;;;;;;;;;4951849;29;20059;-60
2023/06/17 02:16:12;;;;;;;54.37;36.53;;;;;;;;;;4952132;29;20058;-60
2023/06/17 02:18:39;;;;;;;49.73;35.40;;;;;;;;;;4951625;29;20051;-60
2023/06/17 02:21:05;;;;;;;55.30;37.97;;;;;;;;;;4951282;28;20484;-60
2023/06/17 02:23:31;;;;;;;56.40;38.47;;;;;;;;;;4951730;28;20047;-60
2023/06/17 02:25:57;;;;;;;59.60;39.90;;;;;;;;;;4951898;29;20134;-60
2023/06/17 02:28:23;;;;;;;38.67;29.53;;;;;;;;;;4952018;29;20086;-60
2023/06/17 02:30:49;;;;;;;51.23;36.60;;;;;;;;;;4950348;29;20079;-60
2023/06/17 02:33:18;;;;;;;46.27;32.13;;;;;;;;;;4951440;29;20549;-64
2023/06/17 02:35:44;;;;;;;50.40;32.00;;;;;;;;;;4951605;29;20050;-60
2023/06/17 02:38:13;;;;;;;56.37;36.93;;;;;;;;;;4951638;29;20054;-60
2023/06/17 02:40:39;;;;;;;47.13;32.13;;;;;;;;;;4934429;29;20513;-60
2023/06/17 02:43:05;;;;;;;31.47;22.47;;;;;;;;;;4951590;29;20134;-60
2023/06/17 02:45:31;;;;;;;29.20;22.17;;;;;;;;;;4951573;29;20047;-60
2023/06/17 02:47:57;;;;;;;35.73;26.10;;;;;;;;;;4950791;29;20054;-61
2023/06/17 02:50:23;;;;;;;56.83;40.43;;;;;;;;;;4951536;29;20517;-60
2023/06/17 02:52:55;;;;;;;97.97;54.53;;;;;;;;;;4950617;29;20044;-60
2023/06/17 02:55:22;;;;;;;113.37;62.83;;;;;;;;;;4951515;29;20047;-60
2023/06/17 02:57:48;;;;;;;86.13;55.10;;;;;;;;;;4950364;29;20142;-61
2023/06/17 03:00:14;;;;;;;94.33;59.33;;;;;;;;;;4951329;29;20055;-60
2023/06/17 03:02:40;;;;;;;86.80;56.00;;;;;;;;;;4951398;29;20043;-60
2023/06/17 03:05:07;;;;;;;102.13;60.97;;;;;;;;;;4934128;29;20043;-60
2023/06/17 03:07:36;;;;;;;87.10;56.83;;;;;;;;;;4956741;28;20066;-60
2023/06/17 03:10:03;;;;;;;91.07;57.33;;;;;;;;;;4970621;28;20055;-60
2023/06/17 03:12:30;;;;;;;81.43;52.23;;;;;;;;;;4969357;28;20052;-60
2023/06/17 03:14:57;;;;;;;90.73;58.67;;;;;;;;;;4970510;28;20055;-60
2023/06/17 03:17:27;;;;;;;76.33;53.43;;;;;;;;;;4970835;28;20047;-60
2023/06/17 03:19:53;;;;;;;77.10;52.70;;;;;;;;;;4970225;28;20512;-60
2023/06/17 03:22:19;;;;;;;75.63;51.20;;;;;;;;;;4951990;28;20042;-61
2023/06/17 03:24:46;;;;;;;71.37;46.73;;;;;;;;;;4969347;28;20336;-60
2023/06/17 03:27:12;;;;;;;77.27;49.60;;;;;;;;;;4970092;28;20171;-60
2023/06/17 03:29:38;;;;;;;73.97;50.30;;;;;;;;;;4969891;28;20054;-61
2023/06/17 03:32:05;;;;;;;89.77;54.23;;;;;;;;;;4968321;28;20039;-61
2023/06/17 03:34:31;;;;;;;79.73;48.47;;;;;;;;;;4969790;28;20488;-60
2023/06/17 03:36:57;;;;;;;96.30;53.43;;;;;;;;;;4969226;28;20501;-61
2023/06/17 03:39:23;;;;;;;99.57;53.53;;;;;;;;;;4968593;28;20060;-60
2023/06/17 03:41:49;;;;;;;138.27;63.77;;;;;;;;;;4970103;28;20138;-60
2023/06/17 03:44:15;;;;;;;149.30;62.07;;;;;;;;;;4969475;28;20117;-61
2023/06/17 03:46:41;;;;;;;171.73;63.67;;;;;;;;;;4969773;28;20097;-61
2023/06/17 03:49:07;;;;;;;181.00;63.37;;;;;;;;;;4969689;28;20039;-61
2023/06/17 03:51:33;;;;;;;174.93;68.63;;;;;;;;;;4969172;28;20053;-61
2023/06/17 03:54:00;;;;;;;153.63;57.90;;;;;;;;;;4968614;28;20401;-61
2023/06/17 03:56:26;;;;;;;115.67;51.93;;;;;;;;;;4965985;28;20493;-60
2023/06/17 03:58:53;;;;;;;107.97;48.37;;;;;;;;;;4968872;28;20057;-61
2023/06/17 04:01:20;;;;;;;145.27;63.27;;;;;;;;;;4968492;28;20054;-61
2023/06/17 04:03:46;;;;;;;113.50;55.43;;;;;;;;;;4969379;28;20523;-61
2023/06/17 04:06:12;;;;;;;102.23;49.63;;;;;;;;;;4969600;28;20062;-60
2023/06/17 04:08:39;;;;;;;116.17;54.80;;;;;;;;;;4969596;28;20058;-61
2023/06/17 04:11:05;;;;;;;139.10;58.57;;;;;;;;;;4969148;28;20059;-61
2023/06/17 04:13:31;;;;;;;181.67;65.80;;;;;;;;;;4969729;28;20062;-61
2023/06/17 04:15:57;;;;;;;121.20;56.47;;;;;;;;;;4969602;28;20545;-61
2023/06/17 04:18:25;;;;;;;127.87;56.37;;;;;;;;;;4951401;28;20081;-61
2023/06/17 04:20:56;;;;;;;119.83;51.90;;;;;;;;;;4967969;28;20053;-61
2023/06/17 04:23:22;;;;;;;117.10;50.07;;;;;;;;;;4968613;28;20055;-61
2023/06/17 04:25:48;;;;;;;222.70;59.57;;;;;;;;;;4969285;28;20047;-61
2023/06/17 04:28:17;;;;;;;214.93;60.30;;;;;;;;;;4969181;28;20043;-61
2023/06/17 04:30:45;;;;;;;114.63;46.37;;;;;;;;;;4969056;28;20156;-61
2023/06/17 04:33:12;;;;;;;145.93;53.33;;;;;;;;;;4968943;28;20134;-61
2023/06/17 04:35:41;;;;;;;321.33;71.90;;;;;;;;;;4969313;28;20046;-61
2023/06/17 04:38:08;;;;;;;157.03;45.30;;;;;;;;;;4968188;28;20078;-61
2023/06/17 04:40:36;;;;;;;93.10;43.23;;;;;;;;;;4953263;28;20043;-61
2023/06/17 04:43:02;;;;;;;137.90;52.43;;;;;;;;;;4970075;28;20058;-61
2023/06/17 04:45:29;;;;;;;113.00;39.33;;;;;;;;;;4972924;28;20054;-61
2023/06/17 04:47:55;;;;;;;239.23;58.87;;;;;;;;;;4971858;28;20061;-61
2023/06/17 04:50:23;;;;;;;221.07;58.93;;;;;;;;;;4972593;28;20050;-61
2023/06/17 04:52:52;;;;;;;87.87;27.97;;;;;;;;;;4972650;28;20046;-61
2023/06/17 04:55:21;;;;;;;196.90;50.20;;;;;;;;;;4972121;28;20054;-61
2023/06/17 04:57:47;;;;;;;114.87;43.33;;;;;;;;;;4972889;28;20057;-61
2023/06/17 05:00:14;;;;;;;136.90;47.90;;;;;;;;;;4972605;28;20055;-61
2023/06/17 05:02:40;;;;;;;196.37;56.27;;;;;;;;;;4971631;28;20058;-61
2023/06/17 05:05:06;;;;;;;89.57;41.30;;;;;;;;;;4972479;28;20054;-61
2023/06/17 05:07:33;;;;;;;96.00;44.20;;;;;;;;;;4972454;28;20070;-61
2023/06/17 05:09:59;;;;;;;85.03;41.20;;;;;;;;;;4972274;28;20073;-61
2023/06/17 05:12:25;;;;;;;58.63;31.90;;;;;;;;;;4971480;28;20248;-61
2023/06/17 05:14:51;;;;;;;56.90;33.57;;;;;;;;;;4970890;28;20046;-61
2023/06/17 05:17:17;;;;;;;57.53;32.20;;;;;;;;;;4972037;28;20039;-61
2023/06/17 05:19:43;;;;;;;56.00;31.60;;;;;;;;;;4972572;28;20070;-61
2023/06/17 05:22:09;;;;;;;51.53;29.93;;;;;;;;;;4972213;28;20047;-61
2023/06/17 05:24:36;;;;;;;44.13;29.20;;;;;;;;;;4971204;28;20046;-62
2023/06/17 05:27:02;;;;;;;52.27;29.67;;;;;;;;;;4971479;28;20094;-61
2023/06/17 05:29:28;;;;;;;41.13;25.77;;;;;;;;;;4969680;28;20090;-61
2023/06/17 05:31:54;;;;;;;37.67;25.73;;;;;;;;;;4971733;28;20046;-62
2023/06/17 05:34:20;;;;;;;42.50;25.37;;;;;;;;;;4971552;28;20043;-61
2023/06/17 05:36:46;;;;;;;34.80;24.50;;;;;;;;;;4972046;28;20051;-61
2023/06/17 05:39:12;;;;;;;36.57;25.53;;;;;;;;;;4971770;28;20497;-61
2023/06/17 05:41:38;;;;;;;33.73;23.83;;;;;;;;;;4971512;28;20046;-61
2023/06/17 05:44:04;;;;;;;35.70;24.53;;;;;;;;;;4970573;28;20058;-61
2023/06/17 05:46:30;;;;;;;34.13;22.90;;;;;;;;;;4971566;28;20051;-61
2023/06/17 05:48:56;;;;;;;37.10;23.50;;;;;;;;;;4969458;28;20050;-61
2023/06/17 05:51:22;;;;;;;38.47;21.77;;;;;;;;;;4971923;28;20050;-62
2023/06/17 05:53:50;;;;;;;29.63;22.70;;;;;;;;;;4971320;28;20082;-61
2023/06/17 05:56:17;;;;;;;27.60;22.07;;;;;;;;;;4970449;28;20516;-62
2023/06/17 05:58:43;;;;;;;31.53;22.37;;;;;;;;;;4971689;28;20062;-62
2023/06/17 06:01:09;;;;;;;27.23;20.97;;;;;;;;;;4971547;28;20492;-62
2023/06/17 06:03:35;;;;;;;31.63;21.50;;;;;;;;;;4971274;28;20509;-62
2023/06/17 06:06:01;;;;;;;29.63;20.37;;;;;;;;;;4971541;28;20043;-62
2023/06/17 06:08:27;;;;;;;26.63;20.83;;;;;;;;;;4971565;28;20441;-63
2023/06/17 06:10:53;;;;;;;27.43;21.87;;;;;;;;;;4969771;28;20073;-62
2023/06/17 06:13:19;;;;;;;38.23;21.83;;;;;;;;;;4969572;28;20059;-62
2023/06/17 06:15:46;;;;;;;32.00;20.33;;;;;;;;;;4969212;28;20078;-63
2023/06/17 06:18:12;;;;;;;28.77;19.60;;;;;;;;;;4970560;28;20061;-63
2023/06/17 06:20:38;;;;;;;24.93;19.60;;;;;;;;;;4970772;28;20046;-62
2023/06/17 06:23:04;;;;;;;28.23;19.10;;;;;;;;;;4967714;28;20501;-63
2023/06/17 06:25:30;;;;;;;23.30;17.27;;;;;;;;;;4967453;28;20090;-63
2023/06/17 06:27:58;;;;;;;23.63;17.60;;;;;;;;;;4970558;28;20043;-62
2023/06/17 06:30:24;;;;;;;22.27;17.83;;;;;;;;;;4969840;28;20054;-63
2023/06/17 06:32:51;;;;;;;20.80;17.20;;;;;;;;;;4970789;28;20046;-63
2023/06/17 06:35:16;;;;;;;18.73;16.73;;;;;;;;;;4970776;28;20043;-64
2023/06/17 06:37:43;;;;;;;20.37;17.43;;;;;;;;;;4970338;28;20066;-63
2023/06/17 06:40:09;;;;;;;26.40;18.17;;;;;;;;;;4970491;28;20433;-62
2023/06/17 06:42:35;;;;;;;21.97;18.50;;;;;;;;;;4970286;28;20053;-62
2023/06/17 06:45:01;;;;;;;22.47;18.13;;;;;;;;;;4969948;28;20046;-62
2023/06/17 06:47:29;;;;;;;22.07;18.00;;;;;;;;;;4970364;28;20519;-64
2023/06/17 06:49:54;;;;;;;22.23;17.93;;;;;;;;;;4970437;28;20050;-63
2023/06/17 06:52:21;;;;;;;24.70;17.23;;;;;;;;;;4970216;28;20039;-62
2023/06/17 06:54:47;;;;;;;22.63;18.40;;;;;;;;;;4970328;28;20098;-62
2023/06/17 06:57:12;;;;;;;18.47;15.33;;;;;;;;;;4969916;28;20074;-63
2023/06/17 06:59:38;;;;;;;18.40;14.90;;;;;;;;;;4970299;28;20051;-62
2023/06/17 07:02:04;;;;;;;16.70;14.80;;;;;;;;;;4969991;28;20528;-63
2023/06/17 07:04:30;;;;;;;20.93;15.83;;;;;;;;;;4970400;28;20058;-62
2023/06/17 07:06:56;;;;;;;20.10;14.83;;;;;;;;;;4969721;28;20066;-63
2023/06/17 07:09:22;;;;;;;19.43;15.97;;;;;;;;;;4969354;28;20142;-63
2023/06/17 07:11:48;;;;;;;19.80;14.60;;;;;;;;;;4970016;28;20058;-63
2023/06/17 07:14:14;;;;;;;16.97;14.03;;;;;;;;;;4970122;28;20516;-62
2023/06/17 07:16:40;;;;;;;16.90;14.83;;;;;;;;;;4969223;28;20042;-63
2023/06/17 07:19:06;;;;;;;19.37;14.47;;;;;;;;;;4969538;28;20170;-62
2023/06/17 07:21:32;;;;;;;18.13;15.17;;;;;;;;;;4969731;28;20081;-62
2023/06/17 07:23:58;;;;;;;18.80;15.37;;;;;;;;;;4969469;28;20046;-62
2023/06/17 07:26:24;;;;;;;16.97;13.17;;;;;;;;;;4969148;28;20492;-63
2023/06/17 07:28:50;;;;;;;18.40;14.10;;;;;;;;;;4969389;28;20413;-62
2023/06/17 07:31:16;;;;;;;17.50;14.83;;;;;;;;;;4969756;28;20046;-62
2023/06/17 07:33:42;;;;;;;18.30;14.17;;;;;;;;;;4969582;28;20081;-62
2023/06/17 07:36:08;;;;;;;17.67;13.17;;;;;;;;;;4969185;28;20492;-62
2023/06/17 07:38:34;;;;;;;20.03;14.00;;;;;;;;;;4952579;28;20051;-62
2023/06/17 07:41:00;;;;;;;18.40;12.57;;;;;;;;;;4968880;28;20046;-62
2023/06/17 07:43:27;;;;;;;17.37;13.93;;;;;;;;;;4969238;28;20552;-62
2023/06/17 07:45:53;;;;;;;17.77;13.33;;;;;;;;;;4969656;28;20042;-63
2023/06/17 07:48:19;;;;;;;15.53;13.20;;;;;;;;;;4969525;28;20141;-62
2023/06/17 07:50:45;;;;;;;17.80;13.57;;;;;;;;;;4968699;28;20888;-62
2023/06/17 07:53:11;;;;;;;14.67;11.60;;;;;;;;;;4969082;28;20497;-63
2023/06/17 07:55:39;;;;;;;17.97;12.13;;;;;;;;;;4969530;28;20096;-63
2023/06/17 07:58:05;;;;;;;15.60;12.40;;;;;;;;;;4969203;28;20097;-63
2023/06/17 08:00:31;;;;;;;15.70;11.67;;;;;;;;;;4968480;28;20047;-63
2023/06/17 08:02:57;;;;;;;13.10;10.23;;;;;;;;;;4969281;28;20417;-63
2023/06/17 08:05:23;;;;;;;12.87;10.83;;;;;;;;;;4969474;28;20088;-63
2023/06/17 08:07:49;;;;;;;13.63;11.15;;;;;;;;;;4968479;28;20062;-62
2023/06/17 08:10:14;;;;;;;13.93;10.07;;;;;;;;;;4969464;28;20670;-63
2023/06/17 08:12:40;;;;;;;14.03;10.93;;;;;;;;;;4969406;28;20074;-62
2023/06/17 08:15:07;;;;;;;14.93;9.77;;;;;;;;;;4969111;28;20134;-62
2023/06/17 08:17:33;;;;;;;14.50;9.57;;;;;;;;;;4969800;28;20063;-63
2023/06/17 08:20:00;;;;;;;13.32;9.05;;;;;;;;;;4972624;28;20050;-63
2023/06/17 08:22:26;;;;;;;9.70;8.70;;;;;;;;;;4973007;28;20048;-65
2023/06/17 08:24:52;;;;;;;15.13;11.05;;;;;;;;;;4972834;28;20053;-63
2023/06/17 08:27:18;;;;;;;14.88;11.07;;;;;;;;;;4972908;28;20149;-63
2023/06/17 08:29:44;;;;;;;13.98;9.82;;;;;;;;;;4972538;28;20417;-63
2023/06/17 08:32:10;;;;;;;14.48;9.05;;;;;;;;;;4972707;28;20047;-65
2023/06/17 08:34:36;;;;;;;11.98;9.07;;;;;;;;;;4972632;28;20072;-64
2023/06/17 08:37:04;;;;;;;12.65;8.27;;;;;;;;;;4972899;28;20046;-63
2023/06/17 08:39:31;;;;;;;10.07;8.10;;;;;;;;;;4973057;28;20051;-63
2023/06/17 08:41:57;;;;;;;13.70;8.40;;;;;;;;;;4971864;28;20556;-63
2023/06/17 08:44:23;;;;;;;11.90;8.88;;;;;;;;;;4972909;28;20153;-63
2023/06/17 08:46:51;;;;;;;11.60;8.98;;;;;;;;;;4972965;28;20308;-63
2023/06/17 08:49:18;;;;;;;12.70;8.50;;;;;;;;;;4972509;28;20112;-63
2023/06/17 08:51:44;;;;;;;12.38;8.80;;;;;;;;;;4971991;28;20058;-63
2023/06/17 08:54:11;;;;;;;15.75;10.02;;;;;;;;;;4972353;28;20505;-63
2023/06/17 08:56:37;;;;;;;12.15;8.65;;;;;;;;;;4955159;28;20065;-63
2023/06/17 08:59:03;;;;;;;9.13;7.70;;;;;;;;;;4972416;28;20856;-63
2023/06/17 09:01:29;;;;;;;8.90;7.95;;;;;;;;;;4971894;28;20050;-63
2023/06/17 09:03:55;;;;;;;10.57;8.65;;;;;;;;;;4972282;28;20540;-63
2023/06/17 09:06:28;;;;;;;14.35;7.93;;;;;;;;;;4972601;28;20106;-63
2023/06/17 09:08:55;;;;;;;12.88;8.15;;;;;;;;;;4972221;28;20059;-63
2023/06/17 09:11:25;;;;;;;12.48;8.38;;;;;;;;;;4971639;28;20077;-64
2023/06/17 09:13:56;;;;;;;12.80;7.15;;;;;;;;;;4972409;28;20042;-63
2023/06/17 09:16:26;;;;;;;13.20;7.85;;;;;;;;;;4972200;28;20053;-63
2023/06/17 09:18:56;;;;;;;10.48;7.22;;;;;;;;;;4971991;28;20051;-63
2023/06/17 09:21:22;;;;;;;11.27;7.38;;;;;;;;;;4972019;28;20497;-63
2023/06/17 09:23:55;;;;;;;11.23;7.15;;;;;;;;;;4971489;28;20516;-63
2023/06/17 09:26:25;;;;;;;8.70;6.70;;;;;;;;;;4972048;28;20501;-62
2023/06/17 09:28:51;;;;;;;7.63;6.68;;;;;;;;;;4972221;28;20404;-62
2023/06/17 09:31:18;;;;;;;8.77;6.47;;;;;;;;;;4971677;28;20047;-62
2023/06/17 09:33:45;;;;;;;8.18;6.88;;;;;;;;;;4971665;28;20054;-62
2023/06/17 09:36:11;;;;;;;10.77;7.18;;;;;;;;;;4971440;28;20054;-62
2023/06/17 09:38:38;;;;;;;9.98;6.85;;;;;;;;;;4971548;28;20050;-63
2023/06/17 09:41:05;;;;;;;8.23;6.05;;;;;;;;;;4971594;28;20531;-62
2023/06/17 09:43:31;;;;;;;7.43;5.45;;;;;;;;;;4971914;28;20465;-63
2023/06/17 09:45:59;;;;;;;7.88;6.65;;;;;;;;;;4971650;28;20429;-62
2023/06/17 09:48:29;;;;;;;7.35;6.30;;;;;;;;;;4970927;28;20050;-63
2023/06/17 09:50:56;;;;;;;10.32;6.43;;;;;;;;;;4971310;28;20572;-63
2023/06/17 09:53:26;;;;;;;8.80;5.72;;;;;;;;;;4971563;28;20082;-63
2023/06/17 09:55:55;;;;;;;7.97;6.03;;;;;;;;;;4971336;28;20531;-63
2023/06/17 09:58:22;;;;;;;9.25;6.25;;;;;;;;;;4971114;28;20050;-63
2023/06/17 10:00:51;;;;;;;7.05;5.78;;;;;;;;;;4971269;28;20047;-63
2023/06/17 10:03:17;;;;;;;8.50;5.53;;;;;;;;;;4971295;28;20051;-63
2023/06/17 10:05:45;;;;;;;8.15;6.55;;;;;;;;;;4971461;28;20062;-63
2023/06/17 10:08:11;;;;;;;9.73;6.30;;;;;;;;;;4971059;28;20501;-63
2023/06/17 10:10:38;;;;;;;6.25;4.88;;;;;;;;;;4970817;28;20117;-63
2023/06/17 10:13:05;;;;;;;9.40;6.35;;;;;;;;;;4971100;28;20584;-63
2023/06/17 10:15:32;;;;;;;8.07;5.97;;;;;;;;;;4971307;28;20832;-63
2023/06/17 10:17:58;;;;;;;10.15;5.97;;;;;;;;;;4970958;28;20058;-63
2023/06/17 10:20:26;;;;;;;9.02;5.40;;;;;;;;;;4970559;28;20102;-62
2023/06/17 10:22:54;;;;;;;8.35;5.38;;;;;;;;;;4971028;28;20058;-62
2023/06/17 10:25:20;;;;;;;9.77;6.20;;;;;;;;;;4971046;28;20057;-62
2023/06/17 10:27:46;;;;;;;10.13;5.00;;;;;;;;;;4970973;28;20413;-62
2023/06/17 10:30:25;;;;;;;7.18;5.28;;;;;;;;;;4970699;28;20053;-63
2023/06/17 10:33:03;;;;;;;11.88;5.80;;;;;;;;;;4971019;28;20051;-63
2023/06/17 10:35:38;;;;;;;6.25;5.30;;;;;;;;;;4970471;28;20046;-63
2023/06/17 10:38:06;;;;;;;6.78;4.93;;;;;;;;;;4971156;28;20058;-63
2023/06/17 10:40:35;;;;;;;8.48;6.03;;;;;;;;;;4970058;28;20049;-63
2023/06/17 10:43:01;;;;;;;5.78;4.75;;;;;;;;;;4970655;28;20051;-63
2023/06/17 10:45:31;;;;;;;8.95;5.43;;;;;;;;;;4970653;28;20046;-62
2023/06/17 10:48:14;;;;;;;5.57;5.00;;;;;;;;;;4969559;28;20053;-63
2023/06/17 10:50:40;;;;;;;9.35;5.25;;;;;;;;;;4970305;28;20101;-62
2023/06/17 10:53:07;;;;;;;7.32;5.13;;;;;;;;;;4970384;28;20051;-62
2023/06/17 10:55:33;;;;;;;7.65;4.68;;;;;;;;;;4969973;28;20050;-62
2023/06/17 10:57:59;;;;;;;7.65;5.45;;;;;;;;;;4970044;28;20515;-63
2023/06/17 11:00:25;;;;;;;6.90;5.82;;;;;;;;;;4970477;28;20049;-63
2023/06/17 11:02:51;;;;;;;5.97;5.18;;;;;;;;;;4970384;28;20047;-63
2023/06/17 11:05:18;;;;;;;8.50;5.60;;;;;;;;;;4969807;28;20035;-62
2023/06/17 11:07:44;;;;;;;9.52;5.53;;;;;;;;;;4970120;28;20162;-63
2023/06/17 11:10:10;;;;;;;8.02;5.43;;;;;;;;;;4970090;28;20057;-62
2023/06/17 11:12:37;;;;;;;7.65;5.60;;;;;;;;;;4970070;28;20058;-62
2023/06/17 11:15:06;;;;;;;7.60;5.32;;;;;;;;;;4970365;28;20512;-62
2023/06/17 11:17:32;;;;;;;7.70;4.80;;;;;;;;;;4969634;28;20298;-63
2023/06/17 11:19:58;;;;;;;7.70;5.35;;;;;;;;;;4952518;28;20093;-62
2023/06/17 11:22:24;;;;;;;10.00;5.30;;;;;;;;;;4969488;28;20043;-62
2023/06/17 11:24:50;;;;;;;7.70;4.90;;;;;;;;;;4969673;28;20142;-63
2023/06/17 11:27:16;;;;;;;13.70;4.57;;;;;;;;;;4969177;28;20130;-62
2023/06/17 11:29:42;;;;;;;7.13;5.20;;;;;;;;;;4969520;28;20069;-63
2023/06/17 11:32:09;;;;;;;7.13;4.88;;;;;;;;;;4969268;28;20501;-63
2023/06/17 11:34:35;;;;;;;9.85;5.35;;;;;;;;;;4969674;28;20051;-63
2023/06/17 11:37:02;;;;;;;6.88;5.00;;;;;;;;;;4969100;28;20038;-63
2023/06/17 11:39:30;;;;;;;8.05;5.20;;;;;;;;;;4969223;28;20055;-63
2023/06/17 11:42:01;;;;;;;10.48;5.10;;;;;;;;;;4969521;28;20086;-63
2023/06/17 11:44:27;;;;;;;;;;;;;;;;;;4969540;28;20465;-63
2023/06/17 11:46:56;;;;;;;7.68;6.15;;;;;;;;;;4969599;28;21021;-63
2023/06/17 11:49:27;;;;;;;7.40;5.15;;;;;;;;;;4969181;28;20386;-63
2023/06/17 11:51:53;;;;;;;7.10;4.65;;;;;;;;;;4968999;28;20493;-63
2023/06/17 11:54:20;;;;;;;6.82;4.20;;;;;;;;;;4969023;28;20046;-63
2023/06/17 11:56:49;;;;;;;5.50;4.30;;;;;;;;;;4969196;28;20401;-63
2023/06/17 11:59:20;;;;;;;5.20;3.70;;;;;;;;;;4968656;28;20509;-63
2023/06/17 12:01:46;;;;;;;7.70;4.05;;;;;;;;;;4969424;28;20047;-63
2023/06/17 12:04:13;;;;;;;8.82;4.60;;;;;;;;;;4969374;28;20055;-63
2023/06/17 12:06:40;;;;;;;8.20;4.28;;;;;;;;;;4969266;28;20135;-63
2023/06/17 12:09:08;;;;;;;5.30;3.88;;;;;;;;;;4968862;28;20055;-63
2023/06/17 12:11:37;;;;;;;4.35;3.83;;;;;;;;;;4969103;28;20046;-63
2023/06/17 12:14:10;;;;;;;7.97;5.05;;;;;;;;;;4969519;28;20050;-63
2023/06/17 12:16:38;;;;;;;8.15;4.15;;;;;;;;;;4969403;28;20129;-63
2023/06/17 12:19:06;;;;;;;5.38;4.18;;;;;;;;;;4969121;28;20046;-63
2023/06/17 12:21:32;;;;;;;9.02;4.68;;;;;;;;;;4968810;28;20050;-63
2023/06/17 12:23:58;;;;;;;8.82;4.53;;;;;;;;;;4968867;28;20054;-63
2023/06/17 12:26:25;;;;;;;7.55;4.10;;;;;;;;;;4968786;28;20047;-63
2023/06/17 12:28:52;;;;;;;6.43;4.05;;;;;;;;;;4968880;28;20051;-63
2023/06/17 12:31:18;;;;;;;6.22;4.07;;;;;;;;;;4968971;28;20070;-63
2023/06/17 12:33:46;;;;;;;6.07;3.95;;;;;;;;;;4951571;28;20485;-63
2023/06/17 12:36:12;;;;;;;6.00;4.03;;;;;;;;;;4968891;28;20082;-63
2023/06/17 12:38:39;;;;;;;7.35;4.13;;;;;;;;;;4968656;28;20051;-63
2023/06/17 12:41:05;;;;;;;6.65;4.22;;;;;;;;;;4968869;28;20047;-63
2023/06/17 12:43:31;;;;;;;5.13;4.07;;;;;;;;;;4968587;28;20097;-63
2023/06/17 12:45:58;;;;;;;5.85;3.60;;;;;;;;;;4969026;28;20413;-63
2023/06/17 12:48:24;;;;;;;4.68;3.38;;;;;;;;;;4968929;28;20051;-63
2023/06/17 12:50:50;;;;;;;5.93;3.92;;;;;;;;;;4968190;28;20086;-63
2023/06/17 12:53:16;;;;;;;6.18;4.50;;;;;;;;;;4968758;28;20421;-63
2023/06/17 12:55:42;;;;;;;7.13;3.80;;;;;;;;;;4968944;28;20425;-63
2023/06/17 12:58:10;;;;;;;5.40;4.22;;;;;;;;;;4968743;28;20110;-63
2023/06/17 13:00:36;;;;;;;6.57;4.28;;;;;;;;;;4968247;28;20051;-63
2023/06/17 13:03:02;;;;;;;4.70;3.67;;;;;;;;;;4968963;28;20121;-63
2023/06/17 13:05:28;;;;;;;6.38;4.45;;;;;;;;;;4972115;28;20053;-63
2023/06/17 13:07:55;;;;;;;9.73;4.25;;;;;;;;;;4954810;28;20066;-63
2023/06/17 13:10:21;;;;;;;5.50;3.88;;;;;;;;;;4971871;28;20097;-63
2023/06/17 13:12:47;;;;;;;8.70;4.65;;;;;;;;;;4972705;28;20051;-63
2023/06/17 13:15:13;;;;;;;6.05;4.38;;;;;;;;;;4954795;28;20118;-64
2023/06/17 13:17:40;;;;;;;6.50;4.22;;;;;;;;;;4972214;28;20050;-64
2023/06/17 13:20:06;;;;;;;5.63;4.13;;;;;;;;;;4971910;28;20042;-64
2023/06/17 13:22:33;;;;;;;6.15;4.35;;;;;;;;;;4972295;28;20465;-64
2023/06/17 13:25:00;;;;;;;5.38;3.42;;;;;;;;;;4971517;28;20050;-64
2023/06/17 13:27:29;;;;;;;6.70;4.03;;;;;;;;;;4971897;28;20519;-64
2023/06/17 13:29:55;;;;;;;6.32;4.03;;;;;;;;;;4971576;28;20047;-64
2023/06/17 13:32:21;;;;;;;6.45;4.03;;;;;;;;;;4971774;28;20469;-64
2023/06/17 13:34:47;;;;;;;5.35;3.97;;;;;;;;;;4971655;28;20042;-64
2023/06/17 13:37:13;;;;;;;5.70;3.63;;;;;;;;;;4971722;28;20054;-64
2023/06/17 13:39:40;;;;;;;7.25;4.22;;;;;;;;;;4971398;28;20054;-64
2023/06/17 13:42:09;;;;;;;5.40;3.92;;;;;;;;;;4971700;28;20472;-64
2023/06/17 13:44:36;;;;;;;5.32;4.15;;;;;;;;;;4971577;28;20065;-64
2023/06/17 13:47:02;;;;;;;4.55;3.65;;;;;;;;;;4971184;28;20485;-64
2023/06/17 13:49:28;;;;;;;6.18;3.85;;;;;;;;;;4971349;28;20113;-64
2023/06/17 13:51:55;;;;;;;5.55;3.60;;;;;;;;;;4971614;28;20505;-64
2023/06/17 13:54:21;;;;;;;5.75;3.53;;;;;;;;;;4971173;28;20105;-64
2023/06/17 13:56:48;;;;;;;5.53;4.20;;;;;;;;;;4970913;28;20047;-64
2023/06/17 13:59:15;;;;;;;5.70;3.55;;;;;;;;;;4971516;28;20101;-64
2023/06/17 14:01:40;;;;;;;5.50;3.72;;;;;;;;;;4971536;28;20043;-64
2023/06/17 14:04:07;;;;;;;5.90;4.00;;;;;;;;;;4971176;28;20189;-64
2023/06/17 14:06:34;;;;;;;6.43;3.90;;;;;;;;;;4971302;28;20484;-64
2023/06/17 14:09:04;;;;;;;5.32;3.17;;;;;;;;;;4971344;28;20067;-64
2023/06/17 14:11:30;;;;;;;5.97;3.95;;;;;;;;;;4971334;28;20043;-64
2023/06/17 14:13:56;;;;;;;6.30;4.13;;;;;;;;;;4971253;28;20050;-64
2023/06/17 14:16:22;;;;;;;4.45;3.78;;;;;;;;;;4970181;28;20047;-64
2023/06/17 14:18:48;;;;;;;4.30;3.65;;;;;;;;;;4971547;28;20109;-64
2023/06/17 14:21:27;;;;;;;7.28;4.10;;;;;;;;;;4971590;28;20046;-64
2023/06/17 14:24:06;;;;;;;6.40;3.55;;;;;;;;;;4953642;28;20591;-64